createdAt,value
2022-08-19T00:02:02.471Z,6.25
2022-08-19T00:04:34.587Z,6.07
2022-08-19T00:07:03.067Z,5.97
2022-08-19T00:09:31.451Z,6.28
2022-08-19T00:12:00.015Z,6.70
2022-08-19T00:14:32.509Z,6.47
2022-08-19T00:17:02.001Z,5.53
2022-08-19T00:19:30.733Z,5.57
2022-08-19T00:21:58.701Z,5.45
2022-08-19T00:24:29.665Z,6.30
2022-08-19T00:27:25.316Z,5.93
2022-08-19T00:29:52.728Z,5.30
2022-08-19T00:32:21.685Z,5.97
2022-08-19T00:34:49.797Z,6.63
2022-08-19T00:37:17.863Z,5.90
2022-08-19T00:39:45.879Z,5.65
2022-08-19T00:42:17.591Z,5.60
2022-08-19T00:44:47.249Z,6.43
2022-08-19T00:47:16.148Z,5.40
2022-08-19T00:49:51.477Z,5.50
2022-08-19T00:52:23.373Z,5.90
2022-08-19T00:54:53.644Z,6.13
2022-08-19T00:57:26.116Z,5.82
2022-08-19T01:00:02.229Z,7.13
2022-08-19T01:02:34.293Z,6.38
2022-08-19T01:05:06.403Z,5.70
2022-08-19T01:07:38.327Z,6.18
2022-08-19T01:10:08.892Z,5.80
2022-08-19T01:12:37.385Z,5.50
2022-08-19T01:15:09.253Z,5.80
2022-08-19T01:17:40.135Z,5.85
2022-08-19T01:20:11.390Z,6.53
2022-08-19T01:22:46.067Z,6.18
2022-08-19T01:25:16.697Z,5.35
2022-08-19T01:27:48.609Z,5.97
2022-08-19T01:30:22.597Z,7.32
2022-08-19T01:32:51.518Z,5.93
2022-08-19T01:35:19.808Z,6.35
2022-08-19T01:37:52.111Z,7.63
2022-08-19T01:40:22.183Z,6.22
2022-08-19T01:42:50.501Z,7.22
2022-08-19T01:45:19.188Z,6.07
2022-08-19T01:47:51.721Z,6.25
2022-08-19T01:50:32.591Z,6.63
2022-08-19T01:53:06.922Z,6.53
2022-08-19T01:55:40.595Z,6.22
2022-08-19T01:58:15.174Z,5.88
2022-08-19T02:00:43.949Z,5.97
2022-08-19T02:03:12.297Z,5.60
2022-08-19T02:05:41.276Z,5.35
2022-08-19T02:08:10.940Z,5.88
2022-08-19T02:10:41.897Z,6.72
2022-08-19T02:13:10.360Z,6.47
2022-08-19T02:15:39.169Z,6.65
2022-08-19T02:18:09.131Z,6.28
2022-08-19T02:20:37.740Z,6.43
2022-08-19T02:23:05.815Z,6.20
2022-08-19T02:25:43.570Z,6.05
2022-08-19T02:28:15.517Z,6.47
2022-08-19T02:30:46.567Z,5.90
2022-08-19T02:33:14.613Z,6.28
2022-08-19T02:35:44.333Z,6.55
2022-08-19T02:38:27.261Z,5.90
2022-08-19T02:40:59.284Z,6.35
2022-08-19T02:43:28.749Z,5.97
2022-08-19T02:45:56.760Z,6.47
2022-08-19T02:48:26.642Z,6.80
2022-08-19T02:50:56.313Z,6.05
2022-08-19T02:53:26.532Z,6.07
2022-08-19T02:55:56.360Z,5.60
2022-08-19T02:58:25.343Z,6.55
2022-08-19T03:00:56.527Z,5.18
2022-08-19T03:03:24.864Z,6.32
2022-08-19T03:05:56.995Z,5.20
2022-08-19T03:08:26.487Z,6.78
2022-08-19T03:10:55.977Z,5.45
2022-08-19T03:13:24.228Z,5.28
2022-08-19T03:15:52.495Z,5.38
2022-08-19T03:18:20.542Z,6.28
2022-08-19T03:20:55.485Z,5.25
2022-08-19T03:23:24.814Z,5.75
2022-08-19T03:25:58.340Z,5.05
2022-08-19T03:28:35.993Z,4.45
2022-08-19T03:31:42.138Z,5.47
2022-08-19T03:36:25.333Z,5.85
2022-08-19T03:38:59.703Z,5.57
2022-08-19T03:41:34.126Z,4.93
2022-08-19T03:44:18.520Z,5.45
2022-08-19T03:46:48.104Z,5.72
2022-08-19T03:49:18.252Z,6.53
2022-08-19T03:51:48.043Z,5.05
2022-08-19T03:54:18.026Z,5.55
2022-08-19T03:56:48.110Z,6.53
2022-08-19T03:59:21.879Z,5.75
2022-08-19T04:01:50.170Z,5.20
2022-08-19T04:04:18.176Z,4.97
2022-08-19T04:06:48.852Z,5.93
2022-08-19T04:09:17.552Z,5.53
2022-08-19T04:11:48.180Z,5.82
2022-08-19T04:14:20.203Z,6.10
2022-08-19T04:16:49.665Z,5.22
2022-08-19T04:19:19.457Z,4.88
2022-08-19T04:21:50.820Z,5.25
2022-08-19T04:24:20.572Z,5.63
2022-08-19T04:26:49.802Z,6.07
2022-08-19T04:29:23.140Z,5.35
2022-08-19T04:31:51.743Z,5.60
2022-08-19T04:34:23.580Z,5.10
2022-08-19T04:36:53.086Z,5.20
2022-08-19T04:39:23.894Z,5.38
2022-08-19T04:42:09.476Z,5.30
2022-08-19T04:44:46.121Z,6.13
2022-08-19T04:47:14.603Z,5.63
2022-08-19T04:49:42.805Z,5.55
2022-08-19T04:52:10.814Z,6.32
2022-08-19T04:54:39.496Z,5.47
2022-08-19T04:57:10.854Z,6.25
2022-08-19T04:59:41.502Z,6.18
2022-08-19T05:02:10.575Z,6.32
2022-08-19T05:04:40.451Z,5.13
2022-08-19T05:07:09.481Z,6.03
2022-08-19T05:09:57.180Z,5.63
2022-08-19T05:12:29.387Z,5.85
2022-08-19T05:15:00.029Z,5.75
2022-08-19T05:17:32.319Z,5.70
2022-08-19T05:20:20.669Z,5.95
2022-08-19T05:22:49.878Z,5.47
2022-08-19T05:25:21.635Z,6.03
2022-08-19T05:27:50.555Z,5.85
2022-08-19T05:30:24.392Z,6.97
2022-08-19T05:33:10.353Z,6.03
2022-08-19T05:35:39.018Z,6.15
2022-08-19T05:38:08.182Z,5.70
2022-08-19T05:40:36.966Z,6.35
2022-08-19T05:43:06.039Z,6.65
2022-08-19T05:45:41.098Z,6.43
2022-08-19T05:48:09.583Z,5.88
2022-08-19T05:50:38.119Z,5.82
2022-08-19T05:53:06.766Z,6.75
2022-08-19T05:55:35.056Z,7.00
2022-08-19T05:58:03.647Z,7.13
2022-08-19T06:00:32.295Z,7.72
2022-08-19T06:03:11.816Z,7.32
2022-08-19T06:05:46.162Z,7.63
2022-08-19T06:08:20.664Z,8.27
2022-08-19T06:11:15.042Z,9.82
2022-08-19T06:13:43.170Z,8.60
2022-08-19T06:16:11.338Z,9.02
2022-08-19T06:18:40.706Z,8.88
2022-08-19T06:21:08.724Z,7.82
2022-08-19T06:23:36.692Z,9.57
2022-08-19T06:26:05.272Z,11.10
2022-08-19T06:28:33.941Z,9.48
2022-08-19T06:31:08.394Z,9.15
2022-08-19T06:33:36.668Z,9.60
2022-08-19T06:36:06.496Z,9.25
2022-08-19T06:38:35.289Z,8.93
2022-08-19T06:41:07.534Z,7.78
2022-08-19T06:43:38.142Z,7.55
2022-08-19T06:46:14.992Z,7.80
2022-08-19T06:48:45.808Z,7.80
2022-08-19T06:51:19.624Z,7.85
2022-08-19T06:53:48.212Z,8.80
2022-08-19T06:56:18.546Z,7.38
2022-08-19T06:58:47.614Z,7.55
2022-08-19T07:01:15.830Z,6.78
2022-08-19T07:03:43.842Z,8.20
2022-08-19T07:06:43.354Z,7.15
2022-08-19T07:09:12.603Z,7.53
2022-08-19T07:11:45.339Z,8.80
2022-08-19T07:14:18.914Z,7.88
2022-08-19T07:16:48.758Z,7.80
2022-08-19T07:19:18.997Z,7.50
2022-08-19T07:21:50.521Z,8.70
2022-08-19T07:24:19.363Z,9.25
2022-08-19T07:26:51.771Z,8.90
2022-08-19T07:29:25.622Z,8.52
2022-08-19T07:32:00.072Z,8.88
2022-08-19T07:34:31.123Z,9.85
2022-08-19T07:37:00.621Z,10.35
2022-08-19T07:39:31.746Z,9.95
2022-08-19T07:42:03.059Z,9.95
2022-08-19T07:44:31.235Z,10.45
2022-08-19T07:47:01.094Z,10.68
2022-08-19T07:49:29.871Z,12.48
2022-08-19T07:52:03.111Z,11.60
2022-08-19T07:54:34.588Z,12.02
2022-08-19T07:57:02.801Z,10.25
2022-08-19T07:59:30.890Z,12.93
2022-08-19T08:02:00.574Z,11.57
2022-08-19T08:04:46.919Z,10.68
2022-08-19T08:07:34.043Z,9.23
2022-08-19T08:10:03.784Z,9.55
2022-08-19T08:12:35.594Z,8.82
2022-08-19T08:15:08.792Z,9.05
2022-08-19T08:17:49.579Z,7.43
2022-08-19T08:23:09.848Z,7.22
2022-08-19T08:25:38.975Z,8.05
2022-08-19T08:28:11.403Z,6.95
2022-08-19T08:30:48.438Z,6.22
2022-08-19T08:33:33.217Z,7.10
2022-08-19T08:36:04.119Z,7.07
2022-08-19T08:38:39.738Z,6.93
2022-08-19T08:41:20.021Z,6.53
2022-08-19T08:43:51.943Z,5.68
2022-08-19T08:46:30.674Z,6.03
2022-08-19T08:49:09.809Z,5.97
2022-08-19T08:54:26.536Z,6.00
2022-08-19T08:56:56.022Z,5.80
2022-08-19T08:59:28.476Z,5.78
2022-08-19T09:01:56.657Z,4.70
2022-08-19T09:04:24.962Z,6.00
2022-08-19T09:07:18.630Z,5.13
2022-08-19T09:10:12.484Z,4.10
2022-08-19T09:12:50.939Z,4.53
2022-08-19T09:15:33.601Z,4.72
2022-08-19T09:18:07.359Z,4.82
2022-08-19T09:20:35.715Z,5.70
2022-08-19T09:23:04.431Z,5.53
2022-08-19T09:25:35.422Z,4.70
2022-08-19T09:28:05.519Z,5.47
2022-08-19T09:30:38.811Z,4.75
2022-08-19T09:35:43.903Z,5.15
2022-08-19T09:38:21.008Z,4.43
2022-08-19T09:40:50.937Z,4.53
2022-08-19T09:43:33.163Z,4.22
2022-08-19T09:46:02.516Z,4.30
2022-08-19T09:48:30.724Z,4.88
2022-08-19T09:51:05.949Z,4.68
2022-08-19T09:53:34.361Z,4.00
2022-08-19T09:56:04.762Z,3.90
2022-08-19T09:58:33.578Z,4.38
2022-08-19T10:01:03.147Z,4.15
2022-08-19T10:03:33.579Z,3.65
2022-08-19T10:06:03.670Z,3.80
2022-08-19T10:08:34.135Z,3.58
2022-08-19T10:11:27.912Z,4.60
2022-08-19T10:13:54.735Z,4.40
2022-08-19T10:16:26.030Z,3.97
2022-08-19T10:18:59.306Z,3.70
2022-08-19T10:21:29.453Z,3.88
2022-08-19T10:24:04.758Z,4.35
2022-08-19T10:26:37.960Z,4.10
2022-08-19T10:29:09.298Z,4.78
2022-08-19T10:32:00.713Z,3.17
2022-08-19T10:34:28.418Z,3.03
2022-08-19T10:37:01.078Z,3.53
2022-08-19T10:39:31.413Z,2.80
2022-08-19T10:42:07.145Z,3.58
2022-08-19T10:44:36.324Z,3.42
2022-08-19T10:47:05.466Z,2.90
2022-08-19T10:50:12.057Z,2.75
2022-08-19T10:52:50.179Z,2.35
2022-08-19T10:55:38.508Z,3.28
2022-08-19T10:58:12.501Z,2.70
2022-08-19T11:00:41.378Z,2.78
2022-08-19T11:03:09.419Z,2.85
2022-08-19T11:05:40.177Z,3.42
2022-08-19T11:08:22.209Z,2.97
2022-08-19T11:10:54.488Z,3.50
2022-08-19T11:13:24.378Z,2.78
2022-08-19T11:16:00.892Z,2.83
2022-08-19T11:18:32.055Z,3.05
2022-08-19T11:21:08.670Z,2.45
2022-08-19T11:23:39.739Z,2.15
2022-08-19T11:26:11.287Z,2.13
2022-08-19T11:28:41.205Z,2.20
2022-08-19T11:31:13.028Z,2.75
2022-08-19T11:33:41.354Z,2.53
2022-08-19T11:36:10.315Z,2.20
2022-08-19T11:38:43.262Z,2.13
2022-08-19T11:41:11.654Z,2.50
2022-08-19T11:43:41.239Z,2.60
2022-08-19T11:46:14.010Z,2.33
2022-08-19T11:48:42.308Z,2.45
2022-08-19T11:51:12.941Z,2.30
2022-08-19T11:53:41.651Z,2.20
2022-08-19T11:56:10.811Z,3.05
2022-08-19T11:58:40.038Z,2.40
2022-08-19T12:01:10.322Z,2.05
2022-08-19T12:03:38.619Z,2.28
2022-08-19T12:06:08.243Z,2.10
2022-08-19T12:08:36.607Z,2.08
2022-08-19T12:11:04.606Z,2.00
2022-08-19T12:13:32.902Z,2.22
2022-08-19T12:16:01.090Z,2.47
2022-08-19T12:18:30.509Z,2.30
2022-08-19T12:20:58.575Z,2.38
2022-08-19T12:23:26.635Z,2.22
2022-08-19T12:25:55.605Z,2.22
2022-08-19T12:28:26.540Z,2.28
2022-08-19T12:30:54.583Z,2.17
2022-08-19T12:33:27.394Z,2.38
2022-08-19T12:36:02.288Z,2.20
2022-08-19T12:38:30.560Z,2.33
2022-08-19T12:41:00.430Z,2.42
2022-08-19T12:43:31.340Z,2.42
2022-08-19T12:45:59.405Z,2.47
2022-08-19T12:48:33.615Z,2.28
2022-08-19T12:51:09.326Z,2.38
2022-08-19T12:53:39.103Z,2.58
2022-08-19T12:56:11.498Z,2.33
2022-08-19T12:58:48.841Z,2.30
2022-08-19T13:01:22.897Z,2.15
2022-08-19T13:03:53.370Z,2.33
2022-08-19T13:06:23.743Z,2.30
2022-08-19T13:08:53.675Z,2.20
2022-08-19T13:11:26.355Z,2.30
2022-08-19T13:13:56.106Z,2.58
2022-08-19T13:16:24.228Z,2.20
2022-08-19T13:18:53.395Z,2.58
2022-08-19T13:21:25.484Z,2.00
2022-08-19T13:23:55.122Z,2.08
2022-08-19T13:26:23.913Z,2.10
2022-08-19T13:29:09.506Z,1.83
2022-08-19T13:31:56.435Z,1.70
2022-08-19T13:34:30.968Z,2.13
2022-08-19T13:37:03.881Z,1.75
2022-08-19T13:39:33.246Z,1.70
2022-08-19T13:42:02.361Z,2.38
2022-08-19T13:44:31.068Z,1.95
2022-08-19T13:47:03.591Z,2.72
2022-08-19T13:49:31.916Z,2.15
2022-08-19T13:52:01.442Z,2.15
2022-08-19T13:54:29.474Z,2.10
2022-08-19T13:56:57.526Z,2.08
2022-08-19T13:59:25.904Z,2.63
2022-08-19T14:01:54.342Z,1.73
2022-08-19T14:04:22.442Z,1.98
2022-08-19T14:06:50.546Z,1.90
2022-08-19T14:09:19.962Z,2.13
2022-08-19T14:11:48.007Z,1.80
2022-08-19T14:14:16.585Z,1.80
2022-08-19T14:16:44.745Z,1.75
2022-08-19T14:19:12.832Z,2.17
2022-08-19T14:21:42.020Z,2.05
2022-08-19T14:24:10.919Z,1.80
2022-08-19T14:26:40.443Z,1.80
2022-08-19T14:29:08.598Z,2.17
2022-08-19T14:31:36.664Z,1.88
2022-08-19T14:34:04.856Z,1.90
2022-08-19T14:36:38.944Z,2.05
2022-08-19T14:39:07.552Z,2.33
2022-08-19T14:41:36.596Z,1.60
2022-08-19T14:44:06.416Z,2.13
2022-08-19T14:46:34.562Z,1.75
2022-08-19T14:49:09.245Z,1.80
2022-08-19T14:51:37.737Z,1.65
2022-08-19T14:54:05.897Z,1.63
2022-08-19T14:56:33.880Z,1.90
2022-08-19T14:59:02.080Z,1.65
2022-08-19T15:01:31.729Z,1.80
2022-08-19T15:04:00.049Z,1.98
2022-08-19T15:06:29.344Z,1.73
2022-08-19T15:09:00.750Z,1.58
2022-08-19T15:11:33.374Z,1.67
2022-08-19T15:14:02.291Z,2.10
2022-08-19T15:16:31.715Z,1.50
2022-08-19T15:19:01.102Z,1.60
2022-08-19T15:21:30.232Z,1.90
2022-08-19T15:23:59.906Z,1.42
2022-08-19T15:26:29.000Z,1.67
2022-08-19T15:28:57.105Z,1.50
2022-08-19T15:31:28.812Z,1.50
2022-08-19T15:33:59.315Z,1.52
2022-08-19T15:36:28.491Z,1.67
2022-08-19T15:38:56.905Z,1.70
2022-08-19T15:41:27.392Z,1.60
2022-08-19T15:43:58.690Z,2.10
2022-08-19T15:46:29.434Z,1.92
2022-08-19T15:49:00.545Z,2.55
2022-08-19T15:51:31.045Z,1.85
2022-08-19T15:53:59.663Z,1.33
2022-08-19T15:56:57.876Z,1.70
2022-08-19T15:59:46.831Z,1.85
2022-08-19T16:02:33.172Z,2.30
2022-08-19T16:05:21.166Z,1.90
2022-08-19T16:07:49.202Z,2.03
2022-08-19T16:10:27.431Z,1.45
2022-08-19T16:12:59.083Z,1.40
2022-08-19T16:15:28.387Z,1.60
2022-08-19T16:17:57.846Z,1.30
2022-08-19T16:20:27.849Z,1.80
2022-08-19T16:22:58.235Z,1.50
2022-08-19T16:25:28.898Z,1.33
2022-08-19T16:28:07.860Z,1.42
2022-08-19T16:30:38.600Z,1.60
2022-08-19T16:33:07.733Z,1.42
2022-08-19T16:35:37.436Z,1.40
2022-08-19T16:38:06.918Z,1.55
2022-08-19T16:40:36.113Z,1.73
2022-08-19T16:43:04.341Z,1.70
2022-08-19T16:45:32.833Z,1.20
2022-08-19T16:48:01.019Z,1.40
2022-08-19T16:50:48.398Z,1.35
2022-08-19T16:53:24.614Z,1.40
2022-08-19T16:55:57.700Z,1.33
2022-08-19T16:58:28.499Z,1.33
2022-08-19T17:01:01.893Z,2.28
2022-08-19T17:03:35.726Z,1.38
2022-08-19T17:06:16.179Z,1.48
2022-08-19T17:08:51.324Z,1.50
2022-08-19T17:11:19.873Z,1.60
2022-08-19T17:13:49.412Z,1.33
2022-08-19T17:16:18.024Z,1.90
2022-08-19T17:18:46.432Z,2.03
2022-08-19T17:21:14.513Z,1.50
2022-08-19T17:23:44.054Z,1.40
2022-08-19T17:26:18.001Z,1.30
2022-08-19T17:28:47.219Z,1.55
2022-08-19T17:31:15.324Z,1.17
2022-08-19T17:33:48.226Z,1.60
2022-08-19T17:36:17.774Z,1.25
2022-08-19T17:38:46.228Z,1.50
2022-08-19T17:41:15.614Z,1.30
2022-08-19T17:43:45.126Z,1.48
2022-08-19T17:46:17.641Z,1.25
2022-08-19T17:48:51.897Z,1.52
2022-08-19T17:51:23.335Z,1.50
2022-08-19T17:53:53.726Z,1.27
2022-08-19T17:56:23.529Z,1.40
2022-08-19T17:59:00.145Z,1.30
2022-08-19T18:01:36.965Z,1.63
2022-08-19T18:04:19.618Z,1.58
2022-08-19T18:06:52.921Z,1.20
2022-08-19T18:09:24.575Z,1.90
2022-08-19T18:11:56.793Z,1.45
2022-08-19T18:14:33.393Z,1.33
2022-08-19T18:17:06.139Z,1.27
2022-08-19T18:19:41.216Z,1.20
2022-08-19T18:22:13.444Z,1.23
2022-08-19T18:24:42.365Z,1.60
2022-08-19T18:27:11.730Z,1.70
2022-08-19T18:29:40.185Z,1.55
2022-08-19T18:32:12.599Z,1.85
2022-08-19T18:34:41.945Z,1.65
2022-08-19T18:37:10.318Z,1.08
2022-08-19T18:39:55.741Z,1.48
2022-08-19T18:42:43.293Z,1.45
2022-08-19T18:45:29.759Z,1.40
2022-08-19T18:48:27.511Z,1.75
2022-08-19T18:51:01.188Z,2.28
2022-08-19T18:53:32.274Z,1.75
2022-08-19T18:56:01.061Z,1.70
2022-08-19T18:58:34.635Z,1.63
2022-08-19T19:01:11.322Z,1.65
2022-08-19T19:03:41.543Z,1.20
2022-08-19T19:06:10.168Z,1.73
2022-08-19T19:08:38.778Z,1.70
2022-08-19T19:11:07.323Z,1.40
2022-08-19T19:13:39.728Z,1.70
2022-08-19T19:16:09.567Z,1.60
2022-08-19T19:18:37.850Z,1.30
2022-08-19T19:21:06.481Z,1.55
2022-08-19T19:23:34.569Z,1.50
2022-08-19T19:26:02.542Z,1.48
2022-08-19T19:28:30.544Z,1.88
2022-08-19T19:30:59.962Z,1.67
2022-08-19T19:33:28.937Z,1.52
2022-08-19T19:35:57.055Z,1.80
2022-08-19T19:38:25.711Z,1.70
2022-08-19T19:40:53.724Z,1.50
2022-08-19T19:43:21.871Z,1.33
2022-08-19T19:45:49.968Z,1.50
2022-08-19T19:48:19.439Z,1.50
2022-08-19T19:50:51.266Z,1.70
2022-08-19T19:53:22.671Z,1.73
2022-08-19T19:55:54.693Z,1.50
2022-08-19T19:58:28.673Z,1.40
2022-08-19T20:00:58.723Z,1.40
2022-08-19T20:03:29.855Z,1.83
2022-08-19T20:05:59.467Z,1.67
2022-08-19T20:08:45.980Z,1.23
2022-08-19T20:11:25.851Z,1.63
2022-08-19T20:13:53.989Z,1.50
2022-08-19T20:16:25.299Z,1.45
2022-08-19T20:18:55.736Z,1.60
2022-08-19T20:21:27.440Z,1.48
2022-08-19T20:24:08.916Z,1.60
2022-08-19T20:26:38.234Z,1.50
2022-08-19T20:29:13.444Z,1.60
2022-08-19T20:31:57.341Z,1.67
2022-08-19T20:34:27.656Z,1.60
2022-08-19T20:36:55.863Z,1.80
2022-08-19T20:39:23.965Z,2.53
2022-08-19T20:41:51.999Z,1.40
2022-08-19T20:44:19.967Z,1.98
2022-08-19T20:46:54.477Z,1.67
2022-08-19T20:49:27.475Z,1.63
2022-08-19T20:51:58.252Z,1.50
2022-08-19T20:54:27.083Z,1.90
2022-08-19T20:56:55.435Z,1.88
2022-08-19T20:59:24.206Z,1.90
2022-08-19T21:01:52.650Z,1.85
2022-08-19T21:04:22.241Z,2.30
2022-08-19T21:06:51.253Z,1.50
2022-08-19T21:09:20.695Z,1.65
2022-08-19T21:11:49.538Z,1.60
2022-08-19T21:14:19.493Z,2.03
2022-08-19T21:16:47.714Z,1.60
2022-08-19T21:19:17.646Z,1.90
2022-08-19T21:21:48.244Z,1.73
2022-08-19T21:24:16.546Z,1.52
2022-08-19T21:26:49.446Z,1.80
2022-08-19T21:29:19.496Z,1.88
2022-08-19T21:31:48.979Z,2.10
2022-08-19T21:34:17.329Z,1.80
2022-08-19T21:36:45.825Z,1.67
2022-08-19T21:39:13.964Z,1.70
2022-08-19T21:41:43.752Z,1.80
2022-08-19T21:44:13.361Z,1.48
2022-08-19T21:46:41.605Z,1.80
2022-08-19T21:49:09.720Z,2.00
2022-08-19T21:51:38.388Z,1.90
2022-08-19T21:54:06.652Z,1.77
2022-08-19T21:56:35.049Z,2.13
2022-08-19T21:59:03.091Z,1.85
2022-08-19T22:01:32.532Z,1.77
2022-08-19T22:04:00.783Z,2.35
2022-08-19T22:06:28.813Z,2.25
2022-08-19T22:08:56.962Z,1.67
2022-08-19T22:11:25.672Z,2.00
2022-08-19T22:13:56.401Z,1.65
2022-08-19T22:16:25.506Z,1.95
2022-08-19T22:18:54.880Z,1.83
2022-08-19T22:21:37.432Z,1.88
2022-08-19T22:24:09.247Z,1.65
2022-08-19T22:26:37.210Z,2.38
2022-08-19T22:29:05.266Z,2.17
2022-08-19T22:31:33.251Z,2.58
2022-08-19T22:34:03.687Z,2.10
2022-08-19T22:36:32.469Z,1.98
2022-08-19T22:39:00.661Z,1.95
2022-08-19T22:41:28.770Z,2.00
2022-08-19T22:43:57.493Z,2.10
2022-08-19T22:46:25.482Z,2.10
2022-08-19T22:49:00.887Z,2.50
2022-08-19T22:51:48.546Z,2.28
2022-08-19T22:54:16.655Z,2.25
2022-08-19T22:56:44.934Z,1.88
2022-08-19T22:59:13.017Z,2.10
2022-08-19T23:01:41.778Z,2.05
2022-08-19T23:04:10.100Z,2.17
2022-08-19T23:06:42.034Z,2.17
2022-08-19T23:09:16.755Z,1.90
2022-08-19T23:11:45.910Z,1.80
2022-08-19T23:14:14.751Z,2.38
2022-08-19T23:16:50.399Z,2.13
2022-08-19T23:19:19.466Z,1.95
2022-08-19T23:21:49.545Z,2.38
2022-08-19T23:24:17.628Z,2.53
2022-08-19T23:26:59.612Z,1.98
2022-08-19T23:29:45.515Z,2.22
2022-08-19T23:32:17.306Z,2.20
2022-08-19T23:34:45.783Z,2.60
2022-08-19T23:37:15.999Z,2.40
2022-08-19T23:39:45.140Z,2.22
2022-08-19T23:42:13.882Z,2.10
2022-08-19T23:44:51.600Z,2.38
2022-08-19T23:47:21.301Z,2.33
2022-08-19T23:49:49.635Z,1.85
2022-08-19T23:52:19.240Z,2.45
2022-08-19T23:54:47.322Z,2.45
2022-08-19T23:57:15.348Z,2.33
2022-08-19T23:59:45.318Z,2.58
